createdAt,value
2018-12-16T00:04:28.535Z,101883.52
2018-12-16T00:09:33.610Z,101869.03
2018-12-16T00:14:36.311Z,101855.77
2018-12-16T00:19:39.049Z,101868.17
2018-12-16T00:24:41.857Z,101861.38
2018-12-16T00:29:44.674Z,101854.58
2018-12-16T00:34:47.790Z,101846.45
2018-12-16T00:39:50.758Z,101843.45
2018-12-16T00:44:53.649Z,101840.84
2018-12-16T00:49:56.523Z,101833.19
2018-12-16T00:54:59.319Z,101827.69
2018-12-16T01:00:02.696Z,101817.84
2018-12-16T01:05:07.583Z,101820.90
2018-12-16T01:10:10.921Z,101795.28
2018-12-16T01:15:14.005Z,101797.05
2018-12-16T01:20:17.093Z,101795.81
2018-12-16T01:25:20.280Z,101797.13
2018-12-16T01:30:23.094Z,101787.36
2018-12-16T01:35:26.051Z,101788.26
2018-12-16T01:40:28.963Z,101779.22
2018-12-16T01:45:31.809Z,101767.25
2018-12-16T01:50:34.756Z,101754.06
2018-12-16T01:55:37.709Z,101733.53
2018-12-16T02:00:40.611Z,101736.96
2018-12-16T02:05:43.651Z,101710.06
2018-12-16T02:10:47.065Z,101718.24
2018-12-16T02:15:49.757Z,101709.27
2018-12-16T02:20:52.581Z,101704.94
2018-12-16T02:25:56.313Z,101700.20
2018-12-16T02:30:59.076Z,101703.62
2018-12-16T02:36:01.899Z,101683.58
2018-12-16T02:41:04.734Z,101690.83
2018-12-16T02:46:07.957Z,101687.48
2018-12-16T02:51:10.910Z,101704.63
2018-12-16T02:56:13.678Z,101689.72
2018-12-16T03:01:16.573Z,101679.47
2018-12-16T03:06:19.558Z,101672.14
2018-12-16T03:11:22.391Z,101666.53
2018-12-16T03:16:25.282Z,101649.50
2018-12-16T03:21:28.309Z,101653.39
2018-12-16T03:26:35.913Z,101640.56
2018-12-16T03:31:36.181Z,101646.23
2018-12-16T03:36:39.164Z,101637.10
2018-12-16T03:41:41.960Z,101637.05
2018-12-16T03:46:44.821Z,101631.06
2018-12-16T03:51:47.429Z,101625.98
2018-12-16T03:56:50.211Z,101631.06
2018-12-16T04:01:53.953Z,101621.22
2018-12-16T04:06:56.736Z,101620.37
2018-12-16T04:11:59.472Z,101610.92
2018-12-16T04:17:02.165Z,101593.50
2018-12-16T04:22:04.973Z,101597.36
2018-12-16T04:27:07.660Z,101584.22
2018-12-16T04:32:10.482Z,101567.55
2018-12-16T04:37:13.362Z,101564.94
2018-12-16T04:42:16.110Z,101557.24
2018-12-16T04:47:19.076Z,101552.16
2018-12-16T04:52:21.897Z,101551.80
2018-12-16T04:57:24.778Z,101550.47
2018-12-16T05:02:27.706Z,101541.55
2018-12-16T05:07:30.292Z,101538.63
2018-12-16T05:12:32.970Z,101523.25
2018-12-16T05:17:35.760Z,101526.59
2018-12-16T05:22:38.672Z,101507.84
2018-12-16T05:27:41.448Z,101497.61
2018-12-16T05:32:44.265Z,101486.92
2018-12-16T05:37:47.099Z,101481.80
2018-12-16T05:42:50.011Z,101474.17
2018-12-16T05:47:52.644Z,101474.23
2018-12-16T05:52:55.327Z,101467.45
2018-12-16T05:57:58.269Z,101463.07
2018-12-16T06:03:01.160Z,101454.52
2018-12-16T06:08:04.143Z,101451.03
2018-12-16T06:13:06.841Z,101445.53
2018-12-16T06:18:09.570Z,101436.08
2018-12-16T06:23:12.166Z,101432.67
2018-12-16T06:28:14.767Z,101426.27
2018-12-16T06:33:17.596Z,101424.69
2018-12-16T06:38:20.444Z,101423.10
2018-12-16T06:43:23.133Z,101421.83
2018-12-16T06:48:25.867Z,101407.30
2018-12-16T06:53:28.572Z,101389.31
2018-12-16T06:58:31.474Z,101388.45
2018-12-16T07:03:35.098Z,101385.89
2018-12-16T07:08:38.121Z,101377.39
2018-12-16T07:13:40.941Z,101393.69
2018-12-16T07:18:43.634Z,101403.09
2018-12-16T07:23:46.485Z,101419.94
2018-12-16T07:28:49.285Z,101424.58
2018-12-16T07:33:52.802Z,101414.02
2018-12-16T07:38:55.519Z,101410.62
2018-12-16T07:43:58.227Z,101424.38
2018-12-16T07:49:01.062Z,101417.94
2018-12-16T07:54:04.170Z,101409.39
2018-12-16T07:59:08.431Z,101408.17
2018-12-16T08:04:11.515Z,101410.37
2018-12-16T08:09:14.235Z,101400.17
2018-12-16T08:14:19.002Z,101382.67
2018-12-16T08:19:21.974Z,101386.47
2018-12-16T08:24:24.887Z,101384.38
2018-12-16T08:29:27.862Z,101369.39
2018-12-16T08:34:30.447Z,101385.50
2018-12-16T08:39:33.316Z,101381.66
2018-12-16T08:44:36.089Z,101382.42
2018-12-16T08:49:38.946Z,101383.17
2018-12-16T08:54:41.646Z,101388.34
2018-12-16T08:59:44.401Z,101378.94
2018-12-16T09:04:47.089Z,101374.60
2018-12-16T09:09:49.842Z,101363.94
2018-12-16T09:14:55.599Z,101358.39
2018-12-16T09:19:58.301Z,101369.25
2018-12-16T09:25:01.175Z,101344.49
2018-12-16T09:30:06.557Z,101336.33
2018-12-16T09:35:09.662Z,101338.89
2018-12-16T09:40:12.693Z,101338.46
2018-12-16T09:45:15.625Z,101320.96
2018-12-16T09:50:18.614Z,101314.05
2018-12-16T09:55:21.426Z,101300.73
2018-12-16T10:00:24.374Z,101293.00
2018-12-16T10:05:27.275Z,101291.78
2018-12-16T10:10:30.039Z,101286.64
2018-12-16T10:15:32.826Z,101275.19
2018-12-16T10:20:35.716Z,101286.36
2018-12-16T10:25:38.663Z,101276.54
2018-12-16T10:30:41.449Z,101272.20
2018-12-16T10:35:44.413Z,101266.23
2018-12-16T10:40:47.258Z,101260.69
2018-12-16T10:45:50.018Z,101252.48
2018-12-16T10:50:53.840Z,101247.64
2018-12-16T10:55:56.597Z,101234.00
2018-12-16T11:01:05.078Z,101224.24
2018-12-16T11:06:07.980Z,101219.63
2018-12-16T11:11:10.878Z,101209.86
2018-12-16T11:16:13.708Z,101209.44
2018-12-16T11:21:16.769Z,101207.80
2018-12-16T11:26:19.559Z,101209.95
2018-12-16T11:31:22.633Z,101193.80
2018-12-16T11:36:25.406Z,101204.92
2018-12-16T11:41:28.483Z,101186.25
2018-12-16T11:46:31.394Z,101199.07
2018-12-16T11:51:34.263Z,101188.39
2018-12-16T11:56:37.377Z,101167.94
2018-12-16T12:01:40.053Z,101149.20
2018-12-16T12:06:45.006Z,101155.97
2018-12-16T12:11:47.822Z,101134.61
2018-12-16T12:16:50.540Z,101122.23
2018-12-16T12:21:53.305Z,101114.13
2018-12-16T12:26:55.972Z,101105.93
2018-12-16T12:31:58.970Z,101098.01
2018-12-16T12:37:01.906Z,101107.65
2018-12-16T12:42:05.042Z,101097.16
2018-12-16T12:47:08.229Z,101094.62
2018-12-16T12:52:11.366Z,101084.77
2018-12-16T12:57:14.390Z,101092.20
2018-12-16T13:02:17.247Z,101087.25
2018-12-16T13:07:20.212Z,101076.86
2018-12-16T13:12:23.058Z,101073.84
2018-12-16T13:17:25.947Z,101073.00
2018-12-16T13:22:28.729Z,101080.69
2018-12-16T13:27:31.956Z,101072.94
2018-12-16T13:32:34.917Z,101086.14
2018-12-16T13:37:37.737Z,101070.09
2018-12-16T13:42:42.593Z,101078.47
2018-12-16T13:47:45.552Z,101068.27
2018-12-16T13:52:48.325Z,101066.91
2018-12-16T13:57:51.638Z,101062.58
2018-12-16T14:02:54.514Z,101060.69
2018-12-16T14:07:57.376Z,101059.81
2018-12-16T14:13:00.297Z,101063.25
2018-12-16T14:18:03.860Z,101056.02
2018-12-16T14:23:06.848Z,101063.66
2018-12-16T14:28:09.985Z,101057.81
2018-12-16T14:33:12.819Z,101062.50
2018-12-16T14:38:15.992Z,101079.42
2018-12-16T14:43:19.014Z,101072.28
2018-12-16T14:48:21.856Z,101072.22
2018-12-16T14:53:24.454Z,101064.88
2018-12-16T14:58:27.263Z,101068.80
2018-12-16T15:03:30.139Z,101071.47
2018-12-16T15:08:33.160Z,101070.28
2018-12-16T15:13:36.140Z,101062.21
2018-12-16T15:18:38.981Z,101066.05
2018-12-16T15:23:42.026Z,101067.37
2018-12-16T15:28:45.211Z,101051.58
2018-12-16T15:33:48.438Z,101049.80
2018-12-16T15:38:51.208Z,101065.23
2018-12-16T15:43:53.881Z,101062.33
2018-12-16T15:48:56.828Z,101061.05
2018-12-16T15:54:00.025Z,101061.88
2018-12-16T15:59:04.025Z,101069.21
2018-12-16T16:04:07.153Z,101076.08
2018-12-16T16:09:10.310Z,101075.27
2018-12-16T16:14:13.793Z,101077.84
2018-12-16T16:19:16.560Z,101079.13
2018-12-16T16:24:19.336Z,101079.62
2018-12-16T16:29:22.245Z,101087.66
2018-12-16T16:34:25.182Z,101091.58
2018-12-16T16:39:28.031Z,101098.03
2018-12-16T16:44:31.049Z,101110.41
2018-12-16T16:49:33.919Z,101102.30
2018-12-16T16:54:36.905Z,101103.52
2018-12-16T16:59:39.657Z,101100.97
2018-12-16T17:04:42.188Z,101095.05
2018-12-16T17:09:45.164Z,101097.48
2018-12-16T17:14:47.999Z,101098.73
2018-12-16T17:19:50.871Z,101111.18
2018-12-16T17:24:53.746Z,101102.67
2018-12-16T17:29:56.598Z,101105.70
2018-12-16T17:34:59.414Z,101098.04
2018-12-16T17:40:02.542Z,101101.03
2018-12-16T17:45:07.789Z,101100.66
2018-12-16T17:50:10.900Z,101094.27
2018-12-16T17:55:13.831Z,101116.84
2018-12-16T18:00:17.044Z,101105.81
2018-12-16T18:05:20.539Z,101114.73
2018-12-16T18:10:23.489Z,101105.30
2018-12-16T18:15:26.501Z,101104.81
2018-12-16T18:20:29.572Z,101111.25
2018-12-16T18:25:32.445Z,101115.97
2018-12-16T18:30:35.330Z,101117.31
2018-12-16T18:35:38.151Z,101126.27
2018-12-16T18:40:41.004Z,101128.41
2018-12-16T18:45:44.128Z,101125.50
2018-12-16T18:50:47.249Z,101117.41
2018-12-16T18:55:50.117Z,101119.09
2018-12-16T19:00:53.032Z,101128.12
2018-12-16T19:05:56.194Z,101125.52
2018-12-16T19:10:59.107Z,101129.25
2018-12-16T19:16:02.407Z,101133.09
2018-12-16T19:21:05.517Z,101141.55
2018-12-16T19:26:08.765Z,101131.73
2018-12-16T19:31:11.408Z,101126.56
2018-12-16T19:36:17.320Z,101120.23
2018-12-16T19:41:20.343Z,101124.98
2018-12-16T19:46:23.149Z,101125.84
2018-12-16T19:51:26.021Z,101122.00
2018-12-16T19:56:28.971Z,101115.17
2018-12-16T20:01:31.940Z,101113.84
2018-12-16T20:06:41.105Z,101122.79
2018-12-16T20:11:44.135Z,101127.42
2018-12-16T20:16:46.952Z,101130.83
2018-12-16T20:21:49.952Z,101124.42
2018-12-16T20:26:52.869Z,101129.17
2018-12-16T20:31:55.790Z,101115.13
2018-12-16T20:37:01.473Z,101114.35
2018-12-16T20:42:04.490Z,101111.05
2018-12-16T20:47:07.510Z,101121.72
2018-12-16T20:52:10.383Z,101124.73
2018-12-16T20:57:18.845Z,101128.98
2018-12-16T21:02:18.313Z,101125.94
2018-12-16T21:07:21.277Z,101128.92
2018-12-16T21:12:29.957Z,101132.80
2018-12-16T21:17:38.782Z,101143.54
2018-12-16T21:22:41.850Z,101145.63
2018-12-16T21:27:44.629Z,101159.19
2018-12-16T21:32:47.541Z,101161.41
2018-12-16T21:37:50.442Z,101167.92
2018-12-16T21:42:53.745Z,101172.98
2018-12-16T21:47:56.531Z,101172.91
2018-12-16T21:52:59.309Z,101163.39
2018-12-16T21:58:02.237Z,101168.59
2018-12-16T22:03:05.492Z,101171.51
2018-12-16T22:08:08.359Z,101168.92
2018-12-16T22:13:11.218Z,101161.54
2018-12-16T22:18:14.330Z,101158.08
2018-12-16T22:23:18.185Z,101170.13
2018-12-16T22:28:21.073Z,101164.58
2018-12-16T22:33:24.765Z,101158.13
2018-12-16T22:38:27.493Z,101157.62
2018-12-16T22:43:30.477Z,101165.23
2018-12-16T22:48:33.373Z,101156.34
2018-12-16T22:53:36.278Z,101163.23
2018-12-16T22:58:39.189Z,101173.56
2018-12-16T23:03:41.865Z,101176.11
2018-12-16T23:08:45.088Z,101182.88
2018-12-16T23:13:48.705Z,101183.36
2018-12-16T23:18:51.580Z,101192.75
2018-12-16T23:23:54.530Z,101199.56
2018-12-16T23:28:57.469Z,101199.92
2018-12-16T23:34:00.426Z,101200.77
2018-12-16T23:39:04.933Z,101196.53
2018-12-16T23:44:09.846Z,101208.45
2018-12-16T23:49:12.705Z,101207.75
2018-12-16T23:54:15.641Z,101212.02
2018-12-16T23:59:18.472Z,101217.06
